sensor_id;sensor_type;location;lat;lon;timestamp;P1;durP1;ratioP1;P2;durP2;ratioP2
69951;SDS011;60406;48.408;13.392;2023-09-19T00:03:21;5.97;;;2.70;;
69951;SDS011;60406;48.408;13.392;2023-09-19T00:08:22;11.93;;;3.97;;
69951;SDS011;60406;48.408;13.392;2023-09-19T00:13:22;4.20;;;3.40;;
69951;SDS011;60406;48.408;13.392;2023-09-19T00:18:23;5.68;;;2.92;;
69951;SDS011;60406;48.408;13.392;2023-09-19T00:23:24;5.18;;;2.45;;
69951;SDS011;60406;48.408;13.392;2023-09-19T00:28:25;9.50;;;2.58;;
69951;SDS011;60406;48.408;13.392;2023-09-19T00:33:26;3.22;;;1.98;;
69951;SDS011;60406;48.408;13.392;2023-09-19T00:38:27;7.50;;;2.35;;
69951;SDS011;60406;48.408;13.392;2023-09-19T00:43:28;5.75;;;2.60;;
69951;SDS011;60406;48.408;13.392;2023-09-19T00:48:29;8.20;;;2.40;;
69951;SDS011;60406;48.408;13.392;2023-09-19T00:53:31;4.60;;;2.28;;
69951;SDS011;60406;48.408;13.392;2023-09-19T00:58:32;5.82;;;2.00;;
69951;SDS011;60406;48.408;13.392;2023-09-19T01:03:33;4.45;;;2.80;;
69951;SDS011;60406;48.408;13.392;2023-09-19T01:08:34;3.97;;;2.10;;
69951;SDS011;60406;48.408;13.392;2023-09-19T01:13:50;8.13;;;2.17;;
69951;SDS011;60406;48.408;13.392;2023-09-19T01:19:07;4.97;;;1.83;;
69951;SDS011;60406;48.408;13.392;2023-09-19T01:34:52;10.10;;;2.30;;
69951;SDS011;60406;48.408;13.392;2023-09-19T01:39:59;8.02;;;1.95;;
69951;SDS011;60406;48.408;13.392;2023-09-19T01:45:11;4.95;;;2.05;;
69951;SDS011;60406;48.408;13.392;2023-09-19T01:50:17;6.80;;;2.03;;
69951;SDS011;60406;48.408;13.392;2023-09-19T01:55:26;3.72;;;2.05;;
69951;SDS011;60406;48.408;13.392;2023-09-19T02:00:28;4.25;;;1.90;;
69951;SDS011;60406;48.408;13.392;2023-09-19T02:05:29;7.22;;;2.20;;
69951;SDS011;60406;48.408;13.392;2023-09-19T02:10:30;8.15;;;2.20;;
69951;SDS011;60406;48.408;13.392;2023-09-19T02:15:31;3.83;;;1.85;;
69951;SDS011;60406;48.408;13.392;2023-09-19T02:20:32;6.53;;;2.08;;
69951;SDS011;60406;48.408;13.392;2023-09-19T02:25:33;11.30;;;2.63;;
69951;SDS011;60406;48.408;13.392;2023-09-19T02:30:34;9.68;;;3.60;;
69951;SDS011;60406;48.408;13.392;2023-09-19T02:35:35;7.55;;;2.53;;
69951;SDS011;60406;48.408;13.392;2023-09-19T02:40:36;4.32;;;2.10;;
69951;SDS011;60406;48.408;13.392;2023-09-19T02:45:37;3.17;;;2.17;;
69951;SDS011;60406;48.408;13.392;2023-09-19T02:50:38;8.65;;;2.90;;
69951;SDS011;60406;48.408;13.392;2023-09-19T02:55:39;11.45;;;2.45;;
69951;SDS011;60406;48.408;13.392;2023-09-19T03:00:40;6.10;;;2.17;;
69951;SDS011;60406;48.408;13.392;2023-09-19T03:05:41;8.68;;;2.15;;
69951;SDS011;60406;48.408;13.392;2023-09-19T03:10:42;11.90;;;2.35;;
69951;SDS011;60406;48.408;13.392;2023-09-19T03:15:43;8.25;;;2.28;;
69951;SDS011;60406;48.408;13.392;2023-09-19T03:20:44;4.97;;;2.78;;
69951;SDS011;60406;48.408;13.392;2023-09-19T03:25:55;8.77;;;2.85;;
69951;SDS011;60406;48.408;13.392;2023-09-19T03:41:02;8.00;;;2.55;;
69951;SDS011;60406;48.408;13.392;2023-09-19T03:46:03;7.05;;;2.85;;
69951;SDS011;60406;48.408;13.392;2023-09-19T03:51:04;8.93;;;3.20;;
69951;SDS011;60406;48.408;13.392;2023-09-19T03:56:05;7.50;;;2.53;;
69951;SDS011;60406;48.408;13.392;2023-09-19T04:01:06;12.95;;;2.70;;
69951;SDS011;60406;48.408;13.392;2023-09-19T04:06:07;4.97;;;2.17;;
69951;SDS011;60406;48.408;13.392;2023-09-19T04:11:08;6.28;;;3.78;;
69951;SDS011;60406;48.408;13.392;2023-09-19T04:16:09;5.63;;;2.53;;
69951;SDS011;60406;48.408;13.392;2023-09-19T04:21:09;3.38;;;2.40;;
69951;SDS011;60406;48.408;13.392;2023-09-19T04:26:10;3.80;;;2.20;;
69951;SDS011;60406;48.408;13.392;2023-09-19T04:31:11;8.57;;;3.08;;
69951;SDS011;60406;48.408;13.392;2023-09-19T04:36:12;8.45;;;2.42;;
69951;SDS011;60406;48.408;13.392;2023-09-19T04:41:13;4.47;;;2.60;;
69951;SDS011;60406;48.408;13.392;2023-09-19T04:46:14;5.78;;;2.53;;
69951;SDS011;60406;48.408;13.392;2023-09-19T04:51:15;4.03;;;2.42;;
69951;SDS011;60406;48.408;13.392;2023-09-19T04:56:15;3.83;;;2.92;;
69951;SDS011;60406;48.408;13.392;2023-09-19T05:01:16;5.28;;;2.85;;
69951;SDS011;60406;48.408;13.392;2023-09-19T05:06:18;5.72;;;2.72;;
69951;SDS011;60406;48.408;13.392;2023-09-19T05:11:19;8.80;;;3.40;;
69951;SDS011;60406;48.408;13.392;2023-09-19T05:16:20;7.53;;;3.10;;
69951;SDS011;60406;48.408;13.392;2023-09-19T05:21:21;4.68;;;2.53;;
69951;SDS011;60406;48.408;13.392;2023-09-19T05:26:22;5.97;;;2.90;;
69951;SDS011;60406;48.408;13.392;2023-09-19T05:31:23;5.50;;;2.85;;
69951;SDS011;60406;48.408;13.392;2023-09-19T05:36:23;6.03;;;2.78;;
69951;SDS011;60406;48.408;13.392;2023-09-19T05:41:24;3.30;;;2.70;;
69951;SDS011;60406;48.408;13.392;2023-09-19T05:46:25;6.82;;;2.88;;
69951;SDS011;60406;48.408;13.392;2023-09-19T05:51:26;5.45;;;2.55;;
69951;SDS011;60406;48.408;13.392;2023-09-19T05:56:27;4.85;;;2.47;;
69951;SDS011;60406;48.408;13.392;2023-09-19T06:01:28;4.88;;;2.75;;
69951;SDS011;60406;48.408;13.392;2023-09-19T06:06:29;11.57;;;4.28;;
69951;SDS011;60406;48.408;13.392;2023-09-19T06:11:29;7.50;;;3.42;;
69951;SDS011;60406;48.408;13.392;2023-09-19T06:16:30;5.95;;;3.17;;
69951;SDS011;60406;48.408;13.392;2023-09-19T06:21:31;16.80;;;6.05;;
69951;SDS011;60406;48.408;13.392;2023-09-19T06:26:32;10.93;;;4.82;;
69951;SDS011;60406;48.408;13.392;2023-09-19T06:31:33;4.53;;;2.42;;
69951;SDS011;60406;48.408;13.392;2023-09-19T06:36:34;5.43;;;2.35;;
69951;SDS011;60406;48.408;13.392;2023-09-19T06:41:35;3.65;;;2.65;;
69951;SDS011;60406;48.408;13.392;2023-09-19T06:46:36;6.53;;;2.42;;
69951;SDS011;60406;48.408;13.392;2023-09-19T06:51:36;5.28;;;3.13;;
69951;SDS011;60406;48.408;13.392;2023-09-19T06:56:37;6.60;;;2.30;;
69951;SDS011;60406;48.408;13.392;2023-09-19T07:01:38;6.05;;;2.10;;
69951;SDS011;60406;48.408;13.392;2023-09-19T07:06:39;3.67;;;1.98;;
69951;SDS011;60406;48.408;13.392;2023-09-19T07:11:40;4.75;;;1.50;;
69951;SDS011;60406;48.408;13.392;2023-09-19T07:16:41;3.95;;;1.30;;
69951;SDS011;60406;48.408;13.392;2023-09-19T07:21:42;2.53;;;1.52;;
69951;SDS011;60406;48.408;13.392;2023-09-19T07:26:44;2.67;;;1.65;;
69951;SDS011;60406;48.408;13.392;2023-09-19T07:31:46;6.82;;;1.50;;
69951;SDS011;60406;48.408;13.392;2023-09-19T07:36:46;2.30;;;1.65;;
69951;SDS011;60406;48.408;13.392;2023-09-19T07:41:47;6.82;;;1.73;;
69951;SDS011;60406;48.408;13.392;2023-09-19T07:46:48;2.17;;;1.20;;
69951;SDS011;60406;48.408;13.392;2023-09-19T07:51:49;2.20;;;1.42;;
69951;SDS011;60406;48.408;13.392;2023-09-19T07:56:50;2.25;;;1.75;;
69951;SDS011;60406;48.408;13.392;2023-09-19T08:01:51;5.65;;;1.80;;
69951;SDS011;60406;48.408;13.392;2023-09-19T08:06:52;4.15;;;1.52;;
69951;SDS011;60406;48.408;13.392;2023-09-19T08:11:52;2.45;;;1.48;;
69951;SDS011;60406;48.408;13.392;2023-09-19T08:16:57;2.47;;;1.50;;
69951;SDS011;60406;48.408;13.392;2023-09-19T08:22:00;4.88;;;1.50;;
69951;SDS011;60406;48.408;13.392;2023-09-19T08:27:01;2.95;;;1.48;;
69951;SDS011;60406;48.408;13.392;2023-09-19T08:32:01;5.05;;;1.90;;
69951;SDS011;60406;48.408;13.392;2023-09-19T08:37:02;5.18;;;1.77;;
69951;SDS011;60406;48.408;13.392;2023-09-19T08:42:03;2.20;;;1.77;;
69951;SDS011;60406;48.408;13.392;2023-09-19T08:47:11;3.30;;;1.60;;
69951;SDS011;60406;48.408;13.392;2023-09-19T08:52:22;2.75;;;1.40;;
69951;SDS011;60406;48.408;13.392;2023-09-19T08:57:26;1.75;;;1.50;;
69951;SDS011;60406;48.408;13.392;2023-09-19T09:02:29;2.63;;;1.38;;
69951;SDS011;60406;48.408;13.392;2023-09-19T09:07:33;3.05;;;1.30;;
69951;SDS011;60406;48.408;13.392;2023-09-19T09:12:36;5.25;;;1.10;;
69951;SDS011;60406;48.408;13.392;2023-09-19T09:17:38;4.30;;;1.40;;
69951;SDS011;60406;48.408;13.392;2023-09-19T09:22:38;3.17;;;1.70;;
69951;SDS011;60406;48.408;13.392;2023-09-19T09:27:40;2.45;;;1.60;;
69951;SDS011;60406;48.408;13.392;2023-09-19T09:32:41;3.65;;;1.40;;
69951;SDS011;60406;48.408;13.392;2023-09-19T09:37:42;5.55;;;1.58;;
69951;SDS011;60406;48.408;13.392;2023-09-19T09:42:43;2.67;;;1.50;;
69951;SDS011;60406;48.408;13.392;2023-09-19T09:47:45;2.72;;;1.60;;
69951;SDS011;60406;48.408;13.392;2023-09-19T09:52:47;2.20;;;1.48;;
69951;SDS011;60406;48.408;13.392;2023-09-19T09:57:51;4.43;;;1.35;;
69951;SDS011;60406;48.408;13.392;2023-09-19T10:03:19;6.68;;;1.85;;
69951;SDS011;60406;48.408;13.392;2023-09-19T10:08:20;3.53;;;1.20;;
69951;SDS011;60406;48.408;13.392;2023-09-19T10:13:21;2.50;;;1.25;;
69951;SDS011;60406;48.408;13.392;2023-09-19T10:18:23;3.80;;;1.50;;
69951;SDS011;60406;48.408;13.392;2023-09-19T10:23:25;1.27;;;1.13;;
69951;SDS011;60406;48.408;13.392;2023-09-19T10:28:27;1.65;;;1.13;;
69951;SDS011;60406;48.408;13.392;2023-09-19T10:33:28;4.28;;;1.33;;
69951;SDS011;60406;48.408;13.392;2023-09-19T10:38:36;3.13;;;1.25;;
69951;SDS011;60406;48.408;13.392;2023-09-19T10:43:38;5.90;;;1.58;;
69951;SDS011;60406;48.408;13.392;2023-09-19T10:48:40;3.20;;;1.52;;
69951;SDS011;60406;48.408;13.392;2023-09-19T10:53:43;5.35;;;1.40;;
69951;SDS011;60406;48.408;13.392;2023-09-19T10:58:47;2.45;;;1.27;;
69951;SDS011;60406;48.408;13.392;2023-09-19T11:03:49;1.10;;;0.85;;
69951;SDS011;60406;48.408;13.392;2023-09-19T11:09:22;1.90;;;1.08;;
69951;SDS011;60406;48.408;13.392;2023-09-19T11:19:24;1.55;;;0.95;;
69951;SDS011;60406;48.408;13.392;2023-09-19T11:25:40;0.85;;;0.73;;
69951;SDS011;60406;48.408;13.392;2023-09-19T11:30:29;3.65;;;1.02;;
69951;SDS011;60406;48.408;13.392;2023-09-19T11:35:58;3.05;;;0.85;;
69951;SDS011;60406;48.408;13.392;2023-09-19T11:41:36;4.38;;;1.00;;
69951;SDS011;60406;48.408;13.392;2023-09-19T11:51:51;1.13;;;0.70;;
69951;SDS011;60406;48.408;13.392;2023-09-19T11:56:52;1.23;;;1.00;;
69951;SDS011;60406;48.408;13.392;2023-09-19T12:01:54;1.55;;;0.90;;
69951;SDS011;60406;48.408;13.392;2023-09-19T12:07:09;4.10;;;1.13;;
69951;SDS011;60406;48.408;13.392;2023-09-19T12:12:10;5.45;;;1.70;;
69951;SDS011;60406;48.408;13.392;2023-09-19T12:17:11;2.67;;;1.35;;
69951;SDS011;60406;48.408;13.392;2023-09-19T12:22:12;5.22;;;1.15;;
69951;SDS011;60406;48.408;13.392;2023-09-19T12:27:13;2.83;;;1.20;;
69951;SDS011;60406;48.408;13.392;2023-09-19T12:32:14;1.73;;;0.95;;
69951;SDS011;60406;48.408;13.392;2023-09-19T12:37:15;1.77;;;1.10;;
69951;SDS011;60406;48.408;13.392;2023-09-19T12:42:21;2.22;;;0.95;;
69951;SDS011;60406;48.408;13.392;2023-09-19T12:47:23;3.30;;;1.50;;
69951;SDS011;60406;48.408;13.392;2023-09-19T12:52:24;3.60;;;1.90;;
69951;SDS011;60406;48.408;13.392;2023-09-19T12:57:25;2.53;;;1.10;;
69951;SDS011;60406;48.408;13.392;2023-09-19T13:02:26;2.42;;;1.38;;
69951;SDS011;60406;48.408;13.392;2023-09-19T13:07:39;2.67;;;1.40;;
69951;SDS011;60406;48.408;13.392;2023-09-19T13:12:43;4.32;;;1.73;;
69951;SDS011;60406;48.408;13.392;2023-09-19T13:17:45;3.25;;;1.10;;
69951;SDS011;60406;48.408;13.392;2023-09-19T13:22:47;4.50;;;1.30;;
69951;SDS011;60406;48.408;13.392;2023-09-19T13:27:49;2.13;;;1.40;;
69951;SDS011;60406;48.408;13.392;2023-09-19T13:33:10;3.03;;;1.25;;
69951;SDS011;60406;48.408;13.392;2023-09-19T13:38:11;1.88;;;0.93;;
69951;SDS011;60406;48.408;13.392;2023-09-19T13:43:12;3.00;;;1.38;;
69951;SDS011;60406;48.408;13.392;2023-09-19T13:48:13;3.10;;;1.58;;
69951;SDS011;60406;48.408;13.392;2023-09-19T13:53:14;2.60;;;1.20;;
69951;SDS011;60406;48.408;13.392;2023-09-19T13:58:15;1.90;;;1.00;;
69951;SDS011;60406;48.408;13.392;2023-09-19T14:03:16;2.72;;;1.50;;
69951;SDS011;60406;48.408;13.392;2023-09-19T14:08:17;1.42;;;1.33;;
69951;SDS011;60406;48.408;13.392;2023-09-19T14:13:17;1.45;;;0.77;;
69951;SDS011;60406;48.408;13.392;2023-09-19T14:18:18;5.30;;;3.05;;
69951;SDS011;60406;48.408;13.392;2023-09-19T14:23:19;3.05;;;0.80;;
69951;SDS011;60406;48.408;13.392;2023-09-19T14:28:20;2.25;;;1.10;;
69951;SDS011;60406;48.408;13.392;2023-09-19T14:33:21;1.10;;;0.85;;
69951;SDS011;60406;48.408;13.392;2023-09-19T14:38:22;1.98;;;0.93;;
69951;SDS011;60406;48.408;13.392;2023-09-19T14:43:23;1.38;;;0.90;;
69951;SDS011;60406;48.408;13.392;2023-09-19T14:48:24;2.47;;;0.88;;
69951;SDS011;60406;48.408;13.392;2023-09-19T14:53:25;2.70;;;0.80;;
69951;SDS011;60406;48.408;13.392;2023-09-19T14:58:26;0.85;;;0.80;;
69951;SDS011;60406;48.408;13.392;2023-09-19T15:03:26;0.95;;;0.77;;
69951;SDS011;60406;48.408;13.392;2023-09-19T15:08:27;2.40;;;1.10;;
69951;SDS011;60406;48.408;13.392;2023-09-19T15:13:28;1.60;;;0.77;;
69951;SDS011;60406;48.408;13.392;2023-09-19T15:18:30;1.13;;;0.93;;
69951;SDS011;60406;48.408;13.392;2023-09-19T15:23:31;1.10;;;0.65;;
69951;SDS011;60406;48.408;13.392;2023-09-19T15:28:33;1.30;;;1.02;;
69951;SDS011;60406;48.408;13.392;2023-09-19T15:33:34;1.20;;;0.80;;
69951;SDS011;60406;48.408;13.392;2023-09-19T15:43:56;1.48;;;0.85;;
69951;SDS011;60406;48.408;13.392;2023-09-19T15:48:57;2.13;;;1.00;;
69951;SDS011;60406;48.408;13.392;2023-09-19T15:53:58;1.13;;;0.90;;
69951;SDS011;60406;48.408;13.392;2023-09-19T15:58:59;2.78;;;0.80;;
69951;SDS011;60406;48.408;13.392;2023-09-19T16:04:00;3.03;;;0.98;;
69951;SDS011;60406;48.408;13.392;2023-09-19T16:09:01;1.77;;;0.98;;
69951;SDS011;60406;48.408;13.392;2023-09-19T16:14:02;4.43;;;1.17;;
69951;SDS011;60406;48.408;13.392;2023-09-19T16:19:04;1.13;;;0.93;;
69951;SDS011;60406;48.408;13.392;2023-09-19T16:24:05;1.75;;;1.10;;
69951;SDS011;60406;48.408;13.392;2023-09-19T16:29:06;2.10;;;1.25;;
69951;SDS011;60406;48.408;13.392;2023-09-19T16:34:07;1.45;;;1.00;;
69951;SDS011;60406;48.408;13.392;2023-09-19T16:39:07;1.27;;;1.17;;
69951;SDS011;60406;48.408;13.392;2023-09-19T16:44:08;8.05;;;1.13;;
69951;SDS011;60406;48.408;13.392;2023-09-19T16:49:09;6.90;;;1.92;;
69951;SDS011;60406;48.408;13.392;2023-09-19T16:54:10;2.13;;;1.40;;
69951;SDS011;60406;48.408;13.392;2023-09-19T16:59:11;1.83;;;1.10;;
69951;SDS011;60406;48.408;13.392;2023-09-19T17:04:12;1.67;;;1.17;;
69951;SDS011;60406;48.408;13.392;2023-09-19T17:09:13;2.50;;;1.55;;
69951;SDS011;60406;48.408;13.392;2023-09-19T17:14:13;1.55;;;1.30;;
69951;SDS011;60406;48.408;13.392;2023-09-19T17:19:14;2.85;;;1.38;;
69951;SDS011;60406;48.408;13.392;2023-09-19T17:24:15;2.47;;;1.30;;
69951;SDS011;60406;48.408;13.392;2023-09-19T17:29:16;1.88;;;1.55;;
69951;SDS011;60406;48.408;13.392;2023-09-19T17:34:17;3.05;;;1.52;;
69951;SDS011;60406;48.408;13.392;2023-09-19T17:39:24;4.07;;;2.08;;
69951;SDS011;60406;48.408;13.392;2023-09-19T17:44:25;4.13;;;1.67;;
69951;SDS011;60406;48.408;13.392;2023-09-19T17:49:26;9.95;;;1.63;;
69951;SDS011;60406;48.408;13.392;2023-09-19T17:54:27;2.67;;;2.00;;
69951;SDS011;60406;48.408;13.392;2023-09-19T17:59:28;3.17;;;2.10;;
69951;SDS011;60406;48.408;13.392;2023-09-19T18:04:29;2.58;;;1.75;;
69951;SDS011;60406;48.408;13.392;2023-09-19T18:09:30;2.40;;;2.00;;
69951;SDS011;60406;48.408;13.392;2023-09-19T18:14:31;2.30;;;2.10;;
69951;SDS011;60406;48.408;13.392;2023-09-19T18:19:32;2.50;;;2.28;;
69951;SDS011;60406;48.408;13.392;2023-09-19T18:24:33;1.95;;;1.77;;
69951;SDS011;60406;48.408;13.392;2023-09-19T18:29:34;3.30;;;2.55;;
69951;SDS011;60406;48.408;13.392;2023-09-19T18:34:34;4.47;;;3.28;;
69951;SDS011;60406;48.408;13.392;2023-09-19T18:39:35;4.03;;;2.80;;
69951;SDS011;60406;48.408;13.392;2023-09-19T18:44:37;3.25;;;2.60;;
69951;SDS011;60406;48.408;13.392;2023-09-19T18:49:38;3.22;;;2.92;;
69951;SDS011;60406;48.408;13.392;2023-09-19T18:54:39;5.57;;;3.08;;
69951;SDS011;60406;48.408;13.392;2023-09-19T18:59:39;5.07;;;3.40;;
69951;SDS011;60406;48.408;13.392;2023-09-19T19:04:40;3.42;;;3.00;;
69951;SDS011;60406;48.408;13.392;2023-09-19T19:09:41;7.43;;;4.45;;
69951;SDS011;60406;48.408;13.392;2023-09-19T19:14:42;11.55;;;4.75;;
69951;SDS011;60406;48.408;13.392;2023-09-19T19:19:43;3.35;;;2.70;;
69951;SDS011;60406;48.408;13.392;2023-09-19T19:24:44;4.05;;;2.58;;
69951;SDS011;60406;48.408;13.392;2023-09-19T19:29:46;4.85;;;2.92;;
69951;SDS011;60406;48.408;13.392;2023-09-19T19:34:48;3.47;;;3.15;;
69951;SDS011;60406;48.408;13.392;2023-09-19T19:39:49;4.47;;;4.07;;
69951;SDS011;60406;48.408;13.392;2023-09-19T19:44:49;4.03;;;3.72;;
69951;SDS011;60406;48.408;13.392;2023-09-19T19:49:50;8.43;;;3.70;;
69951;SDS011;60406;48.408;13.392;2023-09-19T19:54:51;9.40;;;6.63;;
69951;SDS011;60406;48.408;13.392;2023-09-19T19:59:52;15.75;;;9.63;;
69951;SDS011;60406;48.408;13.392;2023-09-19T20:04:53;17.50;;;12.52;;
69951;SDS011;60406;48.408;13.392;2023-09-19T20:09:54;8.45;;;6.40;;
69951;SDS011;60406;48.408;13.392;2023-09-19T20:14:55;11.45;;;8.07;;
69951;SDS011;60406;48.408;13.392;2023-09-19T20:19:56;10.50;;;5.53;;
69951;SDS011;60406;48.408;13.392;2023-09-19T20:24:56;11.93;;;8.80;;
69951;SDS011;60406;48.408;13.392;2023-09-19T20:29:57;5.60;;;4.70;;
69951;SDS011;60406;48.408;13.392;2023-09-19T20:34:58;4.80;;;4.40;;
69951;SDS011;60406;48.408;13.392;2023-09-19T20:40:02;5.20;;;4.70;;
69951;SDS011;60406;48.408;13.392;2023-09-19T20:45:06;11.30;;;5.25;;
69951;SDS011;60406;48.408;13.392;2023-09-19T20:50:08;10.30;;;4.85;;
69951;SDS011;60406;48.408;13.392;2023-09-19T20:55:09;7.63;;;4.68;;
69951;SDS011;60406;48.408;13.392;2023-09-19T21:00:10;5.35;;;4.45;;
69951;SDS011;60406;48.408;13.392;2023-09-19T21:05:11;7.63;;;5.10;;
69951;SDS011;60406;48.408;13.392;2023-09-19T21:10:12;5.85;;;5.00;;
69951;SDS011;60406;48.408;13.392;2023-09-19T21:15:13;10.27;;;6.95;;
69951;SDS011;60406;48.408;13.392;2023-09-19T21:20:13;7.20;;;5.95;;
69951;SDS011;60406;48.408;13.392;2023-09-19T21:25:14;8.52;;;6.78;;
69951;SDS011;60406;48.408;13.392;2023-09-19T21:30:15;13.38;;;9.35;;
69951;SDS011;60406;48.408;13.392;2023-09-19T21:35:16;9.05;;;7.18;;
69951;SDS011;60406;48.408;13.392;2023-09-19T21:40:17;10.88;;;5.45;;
69951;SDS011;60406;48.408;13.392;2023-09-19T21:45:18;6.00;;;5.40;;
69951;SDS011;60406;48.408;13.392;2023-09-19T21:50:19;11.05;;;5.70;;
69951;SDS011;60406;48.408;13.392;2023-09-19T21:55:25;9.18;;;4.85;;
69951;SDS011;60406;48.408;13.392;2023-09-19T22:00:27;7.47;;;5.88;;
69951;SDS011;60406;48.408;13.392;2023-09-19T22:05:28;7.32;;;4.90;;
69951;SDS011;60406;48.408;13.392;2023-09-19T22:10:29;7.82;;;5.13;;
69951;SDS011;60406;48.408;13.392;2023-09-19T22:15:32;6.53;;;5.20;;
69951;SDS011;60406;48.408;13.392;2023-09-19T22:20:33;6.40;;;5.15;;
69951;SDS011;60406;48.408;13.392;2023-09-19T22:25:34;6.75;;;4.35;;
69951;SDS011;60406;48.408;13.392;2023-09-19T22:30:35;7.75;;;4.72;;
69951;SDS011;60406;48.408;13.392;2023-09-19T22:35:37;6.40;;;4.43;;
69951;SDS011;60406;48.408;13.392;2023-09-19T22:40:38;5.88;;;4.78;;
69951;SDS011;60406;48.408;13.392;2023-09-19T22:45:39;11.50;;;4.55;;
69951;SDS011;60406;48.408;13.392;2023-09-19T22:50:40;10.73;;;4.65;;
69951;SDS011;60406;48.408;13.392;2023-09-19T22:55:42;6.10;;;4.47;;
69951;SDS011;60406;48.408;13.392;2023-09-19T23:00:43;10.63;;;5.93;;
69951;SDS011;60406;48.408;13.392;2023-09-19T23:05:44;12.98;;;5.78;;
69951;SDS011;60406;48.408;13.392;2023-09-19T23:10:45;7.85;;;4.50;;
69951;SDS011;60406;48.408;13.392;2023-09-19T23:15:46;9.10;;;6.60;;
69951;SDS011;60406;48.408;13.392;2023-09-19T23:20:47;8.73;;;5.30;;
69951;SDS011;60406;48.408;13.392;2023-09-19T23:25:48;7.10;;;5.45;;
69951;SDS011;60406;48.408;13.392;2023-09-19T23:30:49;8.13;;;6.15;;
69951;SDS011;60406;48.408;13.392;2023-09-19T23:35:50;6.78;;;4.63;;
69951;SDS011;60406;48.408;13.392;2023-09-19T23:40:50;9.48;;;4.63;;
69951;SDS011;60406;48.408;13.392;2023-09-19T23:45:51;7.38;;;5.90;;
69951;SDS011;60406;48.408;13.392;2023-09-19T23:50:52;6.60;;;5.90;;
69951;SDS011;60406;48.408;13.392;2023-09-19T23:55:53;6.68;;;4.65;;
